sensor_id;sensor_type;location;lat;lon;timestamp;P1;durP1;ratioP1;P2;durP2;ratioP2
51614;SDS011;37695;52.960;6.188;2022-12-11T00:02:16;24.50;;;12.90;;
51614;SDS011;37695;52.960;6.188;2022-12-11T00:04:42;26.67;;;13.45;;
51614;SDS011;37695;52.960;6.188;2022-12-11T00:07:08;24.65;;;12.93;;
51614;SDS011;37695;52.960;6.188;2022-12-11T00:09:33;23.45;;;11.73;;
51614;SDS011;37695;52.960;6.188;2022-12-11T00:11:59;25.70;;;12.70;;
51614;SDS011;37695;52.960;6.188;2022-12-11T00:14:26;23.70;;;12.50;;
51614;SDS011;37695;52.960;6.188;2022-12-11T00:16:52;27.25;;;12.55;;
51614;SDS011;37695;52.960;6.188;2022-12-11T00:19:18;24.15;;;12.60;;
51614;SDS011;37695;52.960;6.188;2022-12-11T00:21:43;22.02;;;12.15;;
51614;SDS011;37695;52.960;6.188;2022-12-11T00:24:09;27.35;;;14.05;;
51614;SDS011;37695;52.960;6.188;2022-12-11T00:26:35;24.77;;;13.32;;
51614;SDS011;37695;52.960;6.188;2022-12-11T00:29:00;24.92;;;13.20;;
51614;SDS011;37695;52.960;6.188;2022-12-11T00:31:26;28.50;;;13.18;;
51614;SDS011;37695;52.960;6.188;2022-12-11T00:33:51;26.10;;;13.38;;
51614;SDS011;37695;52.960;6.188;2022-12-11T00:36:18;29.45;;;13.55;;
51614;SDS011;37695;52.960;6.188;2022-12-11T00:38:46;25.15;;;13.15;;
51614;SDS011;37695;52.960;6.188;2022-12-11T00:41:12;27.63;;;14.60;;
51614;SDS011;37695;52.960;6.188;2022-12-11T00:43:38;26.08;;;13.95;;
51614;SDS011;37695;52.960;6.188;2022-12-11T00:46:04;25.50;;;13.65;;
51614;SDS011;37695;52.960;6.188;2022-12-11T00:48:30;27.60;;;13.93;;
51614;SDS011;37695;52.960;6.188;2022-12-11T00:50:56;25.75;;;13.45;;
51614;SDS011;37695;52.960;6.188;2022-12-11T00:53:22;26.55;;;13.80;;
51614;SDS011;37695;52.960;6.188;2022-12-11T00:55:47;24.38;;;13.65;;
51614;SDS011;37695;52.960;6.188;2022-12-11T00:58:13;25.08;;;13.55;;
51614;SDS011;37695;52.960;6.188;2022-12-11T01:00:39;25.05;;;12.50;;
51614;SDS011;37695;52.960;6.188;2022-12-11T01:03:05;24.27;;;13.60;;
51614;SDS011;37695;52.960;6.188;2022-12-11T01:05:32;24.63;;;12.73;;
51614;SDS011;37695;52.960;6.188;2022-12-11T01:07:58;27.08;;;13.02;;
51614;SDS011;37695;52.960;6.188;2022-12-11T01:10:24;29.45;;;12.90;;
51614;SDS011;37695;52.960;6.188;2022-12-11T01:15:20;25.17;;;12.48;;
51614;SDS011;37695;52.960;6.188;2022-12-11T01:17:48;24.17;;;11.77;;
51614;SDS011;37695;52.960;6.188;2022-12-11T01:20:14;23.05;;;11.30;;
51614;SDS011;37695;52.960;6.188;2022-12-11T01:22:40;22.67;;;11.07;;
51614;SDS011;37695;52.960;6.188;2022-12-11T01:25:06;23.42;;;11.95;;
51614;SDS011;37695;52.960;6.188;2022-12-11T01:27:33;22.63;;;11.15;;
51614;SDS011;37695;52.960;6.188;2022-12-11T01:29:59;20.95;;;11.13;;
51614;SDS011;37695;52.960;6.188;2022-12-11T01:32:25;21.60;;;10.50;;
51614;SDS011;37695;52.960;6.188;2022-12-11T01:34:51;22.77;;;11.82;;
51614;SDS011;37695;52.960;6.188;2022-12-11T01:37:17;25.75;;;12.27;;
51614;SDS011;37695;52.960;6.188;2022-12-11T01:39:42;22.52;;;11.07;;
51614;SDS011;37695;52.960;6.188;2022-12-11T01:42:09;22.27;;;10.85;;
51614;SDS011;37695;52.960;6.188;2022-12-11T01:47:06;21.45;;;10.93;;
51614;SDS011;37695;52.960;6.188;2022-12-11T01:49:31;23.70;;;10.95;;
51614;SDS011;37695;52.960;6.188;2022-12-11T01:51:58;25.35;;;11.63;;
51614;SDS011;37695;52.960;6.188;2022-12-11T01:54:31;20.13;;;10.70;;
51614;SDS011;37695;52.960;6.188;2022-12-11T01:56:59;24.10;;;11.02;;
51614;SDS011;37695;52.960;6.188;2022-12-11T01:59:28;20.98;;;10.63;;
51614;SDS011;37695;52.960;6.188;2022-12-11T02:01:59;21.98;;;11.70;;
51614;SDS011;37695;52.960;6.188;2022-12-11T02:04:32;22.30;;;11.00;;
51614;SDS011;37695;52.960;6.188;2022-12-11T02:06:59;21.73;;;11.75;;
51614;SDS011;37695;52.960;6.188;2022-12-11T02:09:26;21.20;;;11.55;;
51614;SDS011;37695;52.960;6.188;2022-12-11T02:12:06;20.98;;;11.45;;
51614;SDS011;37695;52.960;6.188;2022-12-11T02:14:56;23.55;;;11.18;;
51614;SDS011;37695;52.960;6.188;2022-12-11T02:20:27;24.10;;;12.23;;
51614;SDS011;37695;52.960;6.188;2022-12-11T02:29:06;25.90;;;12.50;;
51614;SDS011;37695;52.960;6.188;2022-12-11T02:34:17;24.48;;;11.85;;
51614;SDS011;37695;52.960;6.188;2022-12-11T02:36:44;26.85;;;13.30;;
51614;SDS011;37695;52.960;6.188;2022-12-11T02:39:13;24.77;;;12.15;;
51614;SDS011;37695;52.960;6.188;2022-12-11T02:41:41;23.75;;;11.25;;
51614;SDS011;37695;52.960;6.188;2022-12-11T02:44:10;25.58;;;12.75;;
51614;SDS011;37695;52.960;6.188;2022-12-11T02:46:38;26.50;;;12.90;;
51614;SDS011;37695;52.960;6.188;2022-12-11T02:49:05;28.55;;;13.00;;
51614;SDS011;37695;52.960;6.188;2022-12-11T02:51:33;27.77;;;12.80;;
51614;SDS011;37695;52.960;6.188;2022-12-11T02:54:04;30.05;;;15.13;;
51614;SDS011;37695;52.960;6.188;2022-12-11T02:56:39;31.90;;;14.52;;
51614;SDS011;37695;52.960;6.188;2022-12-11T02:59:14;26.65;;;12.65;;
51614;SDS011;37695;52.960;6.188;2022-12-11T03:01:44;23.30;;;12.25;;
51614;SDS011;37695;52.960;6.188;2022-12-11T03:04:11;32.38;;;13.18;;
51614;SDS011;37695;52.960;6.188;2022-12-11T03:06:38;28.80;;;13.70;;
51614;SDS011;37695;52.960;6.188;2022-12-11T03:09:10;28.20;;;12.70;;
51614;SDS011;37695;52.960;6.188;2022-12-11T03:11:36;28.70;;;13.98;;
51614;SDS011;37695;52.960;6.188;2022-12-11T03:14:02;28.85;;;14.20;;
51614;SDS011;37695;52.960;6.188;2022-12-11T03:16:38;26.13;;;13.93;;
51614;SDS011;37695;52.960;6.188;2022-12-11T03:19:11;26.55;;;14.23;;
51614;SDS011;37695;52.960;6.188;2022-12-11T03:21:57;27.70;;;13.95;;
51614;SDS011;37695;52.960;6.188;2022-12-11T03:24:34;31.10;;;14.18;;
51614;SDS011;37695;52.960;6.188;2022-12-11T03:27:29;30.55;;;13.18;;
51614;SDS011;37695;52.960;6.188;2022-12-11T03:30:06;28.63;;;14.80;;
51614;SDS011;37695;52.960;6.188;2022-12-11T03:32:48;28.08;;;13.88;;
51614;SDS011;37695;52.960;6.188;2022-12-11T03:35:25;31.27;;;14.68;;
51614;SDS011;37695;52.960;6.188;2022-12-11T03:38:05;27.92;;;14.00;;
51614;SDS011;37695;52.960;6.188;2022-12-11T03:40:35;32.70;;;13.98;;
51614;SDS011;37695;52.960;6.188;2022-12-11T03:43:03;34.58;;;14.32;;
51614;SDS011;37695;52.960;6.188;2022-12-11T03:45:30;32.65;;;15.45;;
51614;SDS011;37695;52.960;6.188;2022-12-11T03:47:57;32.00;;;16.20;;
51614;SDS011;37695;52.960;6.188;2022-12-11T03:50:26;29.42;;;13.93;;
51614;SDS011;37695;52.960;6.188;2022-12-11T03:52:55;33.03;;;14.02;;
51614;SDS011;37695;52.960;6.188;2022-12-11T03:55:22;30.05;;;14.18;;
51614;SDS011;37695;52.960;6.188;2022-12-11T03:57:50;27.02;;;14.50;;
51614;SDS011;37695;52.960;6.188;2022-12-11T04:00:17;28.63;;;13.48;;
51614;SDS011;37695;52.960;6.188;2022-12-11T04:02:44;32.42;;;15.15;;
51614;SDS011;37695;52.960;6.188;2022-12-11T04:05:30;31.00;;;14.02;;
51614;SDS011;37695;52.960;6.188;2022-12-11T04:07:56;31.70;;;15.43;;
51614;SDS011;37695;52.960;6.188;2022-12-11T04:10:23;33.20;;;14.85;;
51614;SDS011;37695;52.960;6.188;2022-12-11T04:12:48;32.40;;;14.45;;
51614;SDS011;37695;52.960;6.188;2022-12-11T04:15:14;31.35;;;15.80;;
51614;SDS011;37695;52.960;6.188;2022-12-11T04:17:39;33.00;;;15.85;;
51614;SDS011;37695;52.960;6.188;2022-12-11T04:20:24;30.10;;;14.88;;
51614;SDS011;37695;52.960;6.188;2022-12-11T04:23:12;31.67;;;15.40;;
51614;SDS011;37695;52.960;6.188;2022-12-11T04:26:05;31.83;;;15.13;;
51614;SDS011;37695;52.960;6.188;2022-12-11T04:28:39;36.00;;;15.40;;
51614;SDS011;37695;52.960;6.188;2022-12-11T04:31:05;31.63;;;14.45;;
51614;SDS011;37695;52.960;6.188;2022-12-11T04:33:35;30.52;;;13.88;;
51614;SDS011;37695;52.960;6.188;2022-12-11T04:36:00;32.35;;;16.08;;
51614;SDS011;37695;52.960;6.188;2022-12-11T04:38:26;34.92;;;15.65;;
51614;SDS011;37695;52.960;6.188;2022-12-11T04:40:58;36.83;;;17.23;;
51614;SDS011;37695;52.960;6.188;2022-12-11T04:43:28;33.55;;;15.88;;
51614;SDS011;37695;52.960;6.188;2022-12-11T04:46:01;33.25;;;14.40;;
51614;SDS011;37695;52.960;6.188;2022-12-11T04:48:30;34.13;;;15.38;;
51614;SDS011;37695;52.960;6.188;2022-12-11T04:50:56;32.25;;;15.38;;
51614;SDS011;37695;52.960;6.188;2022-12-11T04:53:21;34.53;;;15.82;;
51614;SDS011;37695;52.960;6.188;2022-12-11T04:55:47;33.65;;;14.77;;
51614;SDS011;37695;52.960;6.188;2022-12-11T04:58:12;32.47;;;15.95;;
51614;SDS011;37695;52.960;6.188;2022-12-11T05:00:38;32.28;;;15.25;;
51614;SDS011;37695;52.960;6.188;2022-12-11T05:03:04;30.10;;;14.63;;
51614;SDS011;37695;52.960;6.188;2022-12-11T05:05:30;32.13;;;13.50;;
51614;SDS011;37695;52.960;6.188;2022-12-11T05:07:55;30.55;;;14.73;;
51614;SDS011;37695;52.960;6.188;2022-12-11T05:10:21;26.02;;;12.80;;
51614;SDS011;37695;52.960;6.188;2022-12-11T05:12:47;26.88;;;14.40;;
51614;SDS011;37695;52.960;6.188;2022-12-11T05:15:12;27.92;;;14.60;;
51614;SDS011;37695;52.960;6.188;2022-12-11T05:17:38;32.58;;;14.27;;
51614;SDS011;37695;52.960;6.188;2022-12-11T05:20:03;26.88;;;13.23;;
51614;SDS011;37695;52.960;6.188;2022-12-11T05:22:29;31.35;;;13.95;;
51614;SDS011;37695;52.960;6.188;2022-12-11T05:24:55;32.05;;;14.40;;
51614;SDS011;37695;52.960;6.188;2022-12-11T05:27:21;26.15;;;13.50;;
51614;SDS011;37695;52.960;6.188;2022-12-11T05:29:47;28.35;;;14.48;;
51614;SDS011;37695;52.960;6.188;2022-12-11T05:32:12;26.67;;;12.40;;
51614;SDS011;37695;52.960;6.188;2022-12-11T05:34:38;29.55;;;13.50;;
51614;SDS011;37695;52.960;6.188;2022-12-11T05:37:03;31.67;;;13.20;;
51614;SDS011;37695;52.960;6.188;2022-12-11T05:39:29;27.08;;;13.32;;
51614;SDS011;37695;52.960;6.188;2022-12-11T05:41:55;29.33;;;13.68;;
51614;SDS011;37695;52.960;6.188;2022-12-11T05:44:20;28.20;;;14.00;;
51614;SDS011;37695;52.960;6.188;2022-12-11T05:46:46;27.73;;;13.52;;
51614;SDS011;37695;52.960;6.188;2022-12-11T05:49:11;27.42;;;14.10;;
51614;SDS011;37695;52.960;6.188;2022-12-11T05:51:37;27.45;;;13.48;;
51614;SDS011;37695;52.960;6.188;2022-12-11T05:54:04;32.15;;;13.93;;
51614;SDS011;37695;52.960;6.188;2022-12-11T05:56:30;29.50;;;13.27;;
51614;SDS011;37695;52.960;6.188;2022-12-11T05:58:58;27.10;;;12.32;;
51614;SDS011;37695;52.960;6.188;2022-12-11T06:03:52;26.65;;;13.57;;
51614;SDS011;37695;52.960;6.188;2022-12-11T06:06:19;29.65;;;14.43;;
51614;SDS011;37695;52.960;6.188;2022-12-11T06:08:45;29.05;;;13.98;;
51614;SDS011;37695;52.960;6.188;2022-12-11T06:11:13;28.10;;;13.57;;
51614;SDS011;37695;52.960;6.188;2022-12-11T06:13:39;30.85;;;14.27;;
51614;SDS011;37695;52.960;6.188;2022-12-11T06:16:05;27.80;;;14.35;;
51614;SDS011;37695;52.960;6.188;2022-12-11T06:18:34;28.13;;;13.48;;
51614;SDS011;37695;52.960;6.188;2022-12-11T06:21:17;28.60;;;14.85;;
51614;SDS011;37695;52.960;6.188;2022-12-11T06:23:45;27.35;;;14.05;;
51614;SDS011;37695;52.960;6.188;2022-12-11T06:26:12;28.23;;;13.50;;
51614;SDS011;37695;52.960;6.188;2022-12-11T06:28:39;26.27;;;13.45;;
51614;SDS011;37695;52.960;6.188;2022-12-11T06:31:05;30.88;;;14.43;;
51614;SDS011;37695;52.960;6.188;2022-12-11T06:33:31;31.88;;;14.45;;
51614;SDS011;37695;52.960;6.188;2022-12-11T06:36:04;28.38;;;14.63;;
51614;SDS011;37695;52.960;6.188;2022-12-11T06:38:32;28.92;;;13.23;;
51614;SDS011;37695;52.960;6.188;2022-12-11T06:40:58;29.65;;;13.75;;
51614;SDS011;37695;52.960;6.188;2022-12-11T06:43:25;31.98;;;14.40;;
51614;SDS011;37695;52.960;6.188;2022-12-11T06:45:51;26.67;;;12.68;;
51614;SDS011;37695;52.960;6.188;2022-12-11T06:48:17;26.85;;;13.80;;
51614;SDS011;37695;52.960;6.188;2022-12-11T06:50:43;29.17;;;13.52;;
51614;SDS011;37695;52.960;6.188;2022-12-11T06:53:10;25.30;;;13.43;;
51614;SDS011;37695;52.960;6.188;2022-12-11T06:55:37;26.05;;;13.63;;
51614;SDS011;37695;52.960;6.188;2022-12-11T06:58:03;28.30;;;14.13;;
51614;SDS011;37695;52.960;6.188;2022-12-11T07:00:28;28.17;;;14.13;;
51614;SDS011;37695;52.960;6.188;2022-12-11T07:02:54;28.38;;;14.82;;
51614;SDS011;37695;52.960;6.188;2022-12-11T07:05:20;24.25;;;13.23;;
51614;SDS011;37695;52.960;6.188;2022-12-11T07:07:45;25.85;;;14.52;;
51614;SDS011;37695;52.960;6.188;2022-12-11T07:10:11;27.35;;;14.45;;
51614;SDS011;37695;52.960;6.188;2022-12-11T07:12:36;29.92;;;14.23;;
51614;SDS011;37695;52.960;6.188;2022-12-11T07:15:03;27.75;;;13.63;;
51614;SDS011;37695;52.960;6.188;2022-12-11T07:17:29;24.55;;;13.65;;
51614;SDS011;37695;52.960;6.188;2022-12-11T07:19:54;30.08;;;13.93;;
51614;SDS011;37695;52.960;6.188;2022-12-11T07:22:20;26.95;;;14.18;;
51614;SDS011;37695;52.960;6.188;2022-12-11T07:24:46;27.77;;;13.82;;
51614;SDS011;37695;52.960;6.188;2022-12-11T07:27:11;26.85;;;13.75;;
51614;SDS011;37695;52.960;6.188;2022-12-11T07:29:37;25.52;;;12.95;;
51614;SDS011;37695;52.960;6.188;2022-12-11T07:32:02;30.08;;;14.93;;
51614;SDS011;37695;52.960;6.188;2022-12-11T07:34:28;27.92;;;14.48;;
51614;SDS011;37695;52.960;6.188;2022-12-11T07:36:54;28.42;;;13.77;;
51614;SDS011;37695;52.960;6.188;2022-12-11T07:39:19;27.40;;;13.85;;
51614;SDS011;37695;52.960;6.188;2022-12-11T07:41:45;27.52;;;14.43;;
51614;SDS011;37695;52.960;6.188;2022-12-11T07:44:11;29.23;;;14.23;;
51614;SDS011;37695;52.960;6.188;2022-12-11T07:46:37;27.65;;;14.40;;
51614;SDS011;37695;52.960;6.188;2022-12-11T07:49:03;28.85;;;14.13;;
51614;SDS011;37695;52.960;6.188;2022-12-11T07:51:31;27.08;;;14.20;;
51614;SDS011;37695;52.960;6.188;2022-12-11T07:54:10;29.35;;;14.27;;
51614;SDS011;37695;52.960;6.188;2022-12-11T07:56:41;27.85;;;13.70;;
51614;SDS011;37695;52.960;6.188;2022-12-11T07:59:07;27.63;;;13.25;;
51614;SDS011;37695;52.960;6.188;2022-12-11T08:01:33;29.10;;;14.65;;
51614;SDS011;37695;52.960;6.188;2022-12-11T08:04:00;29.42;;;14.50;;
51614;SDS011;37695;52.960;6.188;2022-12-11T08:06:28;28.48;;;15.13;;
51614;SDS011;37695;52.960;6.188;2022-12-11T08:08:56;27.42;;;13.85;;
51614;SDS011;37695;52.960;6.188;2022-12-11T08:11:22;26.15;;;13.90;;
51614;SDS011;37695;52.960;6.188;2022-12-11T08:13:49;32.65;;;14.75;;
51614;SDS011;37695;52.960;6.188;2022-12-11T08:16:15;28.92;;;14.82;;
51614;SDS011;37695;52.960;6.188;2022-12-11T08:18:41;28.27;;;14.35;;
51614;SDS011;37695;52.960;6.188;2022-12-11T08:21:08;30.23;;;14.18;;
51614;SDS011;37695;52.960;6.188;2022-12-11T08:23:39;33.08;;;15.85;;
51614;SDS011;37695;52.960;6.188;2022-12-11T08:26:06;30.85;;;13.88;;
51614;SDS011;37695;52.960;6.188;2022-12-11T08:28:38;31.08;;;16.02;;
51614;SDS011;37695;52.960;6.188;2022-12-11T08:31:05;28.42;;;13.45;;
51614;SDS011;37695;52.960;6.188;2022-12-11T08:33:32;28.33;;;14.05;;
51614;SDS011;37695;52.960;6.188;2022-12-11T08:36:03;30.50;;;14.88;;
51614;SDS011;37695;52.960;6.188;2022-12-11T08:38:29;28.40;;;14.45;;
51614;SDS011;37695;52.960;6.188;2022-12-11T08:40:55;31.88;;;14.35;;
51614;SDS011;37695;52.960;6.188;2022-12-11T08:43:21;27.38;;;14.57;;
51614;SDS011;37695;52.960;6.188;2022-12-11T08:45:46;29.67;;;14.23;;
51614;SDS011;37695;52.960;6.188;2022-12-11T08:48:12;30.77;;;16.42;;
51614;SDS011;37695;52.960;6.188;2022-12-11T08:50:37;32.63;;;15.27;;
51614;SDS011;37695;52.960;6.188;2022-12-11T08:53:03;29.83;;;14.50;;
51614;SDS011;37695;52.960;6.188;2022-12-11T08:55:28;32.13;;;15.60;;
51614;SDS011;37695;52.960;6.188;2022-12-11T08:57:55;30.17;;;14.77;;
51614;SDS011;37695;52.960;6.188;2022-12-11T09:00:21;29.30;;;14.65;;
51614;SDS011;37695;52.960;6.188;2022-12-11T09:02:46;31.70;;;15.30;;
51614;SDS011;37695;52.960;6.188;2022-12-11T09:05:12;30.50;;;15.02;;
51614;SDS011;37695;52.960;6.188;2022-12-11T09:07:38;29.90;;;15.32;;
51614;SDS011;37695;52.960;6.188;2022-12-11T09:10:04;32.85;;;14.25;;
51614;SDS011;37695;52.960;6.188;2022-12-11T09:12:31;29.80;;;15.52;;
51614;SDS011;37695;52.960;6.188;2022-12-11T09:14:58;29.13;;;14.95;;
51614;SDS011;37695;52.960;6.188;2022-12-11T09:17:24;30.17;;;15.55;;
51614;SDS011;37695;52.960;6.188;2022-12-11T09:19:49;29.15;;;15.25;;
51614;SDS011;37695;52.960;6.188;2022-12-11T09:22:15;31.25;;;14.95;;
51614;SDS011;37695;52.960;6.188;2022-12-11T09:24:41;36.13;;;16.58;;
51614;SDS011;37695;52.960;6.188;2022-12-11T09:27:06;29.30;;;15.30;;
51614;SDS011;37695;52.960;6.188;2022-12-11T09:29:32;31.55;;;14.43;;
51614;SDS011;37695;52.960;6.188;2022-12-11T09:31:58;29.77;;;15.27;;
51614;SDS011;37695;52.960;6.188;2022-12-11T09:34:23;30.80;;;15.88;;
51614;SDS011;37695;52.960;6.188;2022-12-11T09:36:49;30.05;;;15.70;;
51614;SDS011;37695;52.960;6.188;2022-12-11T09:39:15;31.30;;;15.77;;
51614;SDS011;37695;52.960;6.188;2022-12-11T09:46:52;32.60;;;15.25;;
51614;SDS011;37695;52.960;6.188;2022-12-11T09:49:22;27.88;;;14.95;;
51614;SDS011;37695;52.960;6.188;2022-12-11T09:52:00;31.13;;;16.15;;
51614;SDS011;37695;52.960;6.188;2022-12-11T09:54:34;30.08;;;15.68;;
51614;SDS011;37695;52.960;6.188;2022-12-11T09:57:07;31.05;;;16.02;;
51614;SDS011;37695;52.960;6.188;2022-12-11T09:59:47;29.63;;;15.13;;
51614;SDS011;37695;52.960;6.188;2022-12-11T10:07:54;30.63;;;15.55;;
51614;SDS011;37695;52.960;6.188;2022-12-11T10:10:33;31.25;;;16.60;;
51614;SDS011;37695;52.960;6.188;2022-12-11T10:18:58;33.20;;;15.90;;
51614;SDS011;37695;52.960;6.188;2022-12-11T10:21:23;25.20;;;14.52;;
51614;SDS011;37695;52.960;6.188;2022-12-11T10:23:58;30.50;;;15.32;;
51614;SDS011;37695;52.960;6.188;2022-12-11T10:26:26;29.35;;;14.80;;
51614;SDS011;37695;52.960;6.188;2022-12-11T10:28:52;28.38;;;15.27;;
51614;SDS011;37695;52.960;6.188;2022-12-11T10:34:11;29.02;;;14.88;;
51614;SDS011;37695;52.960;6.188;2022-12-11T10:36:59;32.20;;;16.15;;
51614;SDS011;37695;52.960;6.188;2022-12-11T10:39:25;28.58;;;15.43;;
51614;SDS011;37695;52.960;6.188;2022-12-11T10:41:52;28.75;;;15.40;;
51614;SDS011;37695;52.960;6.188;2022-12-11T10:44:23;31.23;;;15.45;;
51614;SDS011;37695;52.960;6.188;2022-12-11T10:47:05;27.02;;;15.02;;
51614;SDS011;37695;52.960;6.188;2022-12-11T10:49:35;29.92;;;15.05;;
51614;SDS011;37695;52.960;6.188;2022-12-11T10:52:08;31.02;;;15.60;;
51614;SDS011;37695;52.960;6.188;2022-12-11T10:54:37;30.83;;;14.65;;
51614;SDS011;37695;52.960;6.188;2022-12-11T10:57:05;31.35;;;15.45;;
51614;SDS011;37695;52.960;6.188;2022-12-11T10:59:37;29.25;;;14.40;;
51614;SDS011;37695;52.960;6.188;2022-12-11T11:02:18;25.30;;;14.68;;
51614;SDS011;37695;52.960;6.188;2022-12-11T11:04:45;27.33;;;15.68;;
51614;SDS011;37695;52.960;6.188;2022-12-11T11:07:12;30.00;;;15.95;;
51614;SDS011;37695;52.960;6.188;2022-12-11T11:09:41;31.73;;;16.13;;
51614;SDS011;37695;52.960;6.188;2022-12-11T11:12:23;26.35;;;14.60;;
51614;SDS011;37695;52.960;6.188;2022-12-11T11:17:44;28.33;;;14.32;;
51614;SDS011;37695;52.960;6.188;2022-12-11T11:20:17;43.17;;;15.73;;
51614;SDS011;37695;52.960;6.188;2022-12-11T11:22:52;28.85;;;15.13;;
51614;SDS011;37695;52.960;6.188;2022-12-11T11:25:21;28.00;;;15.40;;
51614;SDS011;37695;52.960;6.188;2022-12-11T11:28:07;29.50;;;16.77;;
51614;SDS011;37695;52.960;6.188;2022-12-11T11:33:32;28.08;;;14.40;;
51614;SDS011;37695;52.960;6.188;2022-12-11T11:36:02;27.77;;;14.73;;
51614;SDS011;37695;52.960;6.188;2022-12-11T11:41:28;28.77;;;15.32;;
51614;SDS011;37695;52.960;6.188;2022-12-11T11:43:59;28.88;;;14.40;;
51614;SDS011;37695;52.960;6.188;2022-12-11T11:46:34;27.38;;;14.95;;
51614;SDS011;37695;52.960;6.188;2022-12-11T11:49:09;30.77;;;15.70;;
51614;SDS011;37695;52.960;6.188;2022-12-11T11:51:56;26.05;;;13.60;;
51614;SDS011;37695;52.960;6.188;2022-12-11T11:54:38;27.83;;;14.73;;
51614;SDS011;37695;52.960;6.188;2022-12-11T12:00:24;25.92;;;14.30;;
51614;SDS011;37695;52.960;6.188;2022-12-11T12:02:53;26.02;;;15.23;;
51614;SDS011;37695;52.960;6.188;2022-12-11T12:05:26;27.70;;;14.90;;
51614;SDS011;37695;52.960;6.188;2022-12-11T12:08:25;26.92;;;15.32;;
51614;SDS011;37695;52.960;6.188;2022-12-11T12:13:36;26.90;;;14.15;;
51614;SDS011;37695;52.960;6.188;2022-12-11T12:16:21;28.77;;;14.68;;
51614;SDS011;37695;52.960;6.188;2022-12-11T12:21:48;29.50;;;15.82;;
51614;SDS011;37695;52.960;6.188;2022-12-11T12:26:50;28.85;;;15.70;;
51614;SDS011;37695;52.960;6.188;2022-12-11T12:34:40;30.88;;;15.55;;
51614;SDS011;37695;52.960;6.188;2022-12-11T12:37:25;25.50;;;14.57;;
51614;SDS011;37695;52.960;6.188;2022-12-11T12:45:25;27.98;;;15.85;;
51614;SDS011;37695;52.960;6.188;2022-12-11T12:47:54;25.50;;;15.30;;
51614;SDS011;37695;52.960;6.188;2022-12-11T12:50:21;29.40;;;16.02;;
51614;SDS011;37695;52.960;6.188;2022-12-11T12:52:49;28.40;;;16.27;;
51614;SDS011;37695;52.960;6.188;2022-12-11T12:57:59;26.13;;;15.48;;
51614;SDS011;37695;52.960;6.188;2022-12-11T13:00:35;23.67;;;15.13;;
51614;SDS011;37695;52.960;6.188;2022-12-11T13:03:21;24.65;;;14.77;;
51614;SDS011;37695;52.960;6.188;2022-12-11T13:05:54;24.13;;;14.73;;
51614;SDS011;37695;52.960;6.188;2022-12-11T13:08:26;21.92;;;14.40;;
51614;SDS011;37695;52.960;6.188;2022-12-11T13:11:01;22.70;;;14.35;;
51614;SDS011;37695;52.960;6.188;2022-12-11T13:18:41;23.95;;;14.88;;
51614;SDS011;37695;52.960;6.188;2022-12-11T13:21:24;22.88;;;14.13;;
51614;SDS011;37695;52.960;6.188;2022-12-11T13:23:50;21.38;;;14.05;;
51614;SDS011;37695;52.960;6.188;2022-12-11T13:26:26;20.98;;;14.18;;
51614;SDS011;37695;52.960;6.188;2022-12-11T13:28:53;20.55;;;14.18;;
51614;SDS011;37695;52.960;6.188;2022-12-11T13:33:50;23.48;;;13.77;;
51614;SDS011;37695;52.960;6.188;2022-12-11T13:38:49;20.38;;;13.27;;
51614;SDS011;37695;52.960;6.188;2022-12-11T13:41:18;23.50;;;15.63;;
51614;SDS011;37695;52.960;6.188;2022-12-11T13:43:45;23.35;;;14.15;;
51614;SDS011;37695;52.960;6.188;2022-12-11T13:46:13;22.42;;;14.32;;
51614;SDS011;37695;52.960;6.188;2022-12-11T13:48:47;23.52;;;15.07;;
51614;SDS011;37695;52.960;6.188;2022-12-11T13:51:20;26.25;;;15.32;;
51614;SDS011;37695;52.960;6.188;2022-12-11T13:53:47;23.27;;;14.85;;
51614;SDS011;37695;52.960;6.188;2022-12-11T13:56:17;24.20;;;15.93;;
51614;SDS011;37695;52.960;6.188;2022-12-11T13:58:44;24.80;;;15.00;;
51614;SDS011;37695;52.960;6.188;2022-12-11T14:01:11;24.02;;;16.08;;
51614;SDS011;37695;52.960;6.188;2022-12-11T14:03:40;23.20;;;15.13;;
51614;SDS011;37695;52.960;6.188;2022-12-11T14:06:12;23.77;;;15.63;;
51614;SDS011;37695;52.960;6.188;2022-12-11T14:08:39;24.55;;;15.73;;
51614;SDS011;37695;52.960;6.188;2022-12-11T14:11:11;24.15;;;15.68;;
51614;SDS011;37695;52.960;6.188;2022-12-11T14:13:45;24.42;;;14.70;;
51614;SDS011;37695;52.960;6.188;2022-12-11T14:16:13;22.58;;;15.25;;
51614;SDS011;37695;52.960;6.188;2022-12-11T14:18:46;24.85;;;15.45;;
51614;SDS011;37695;52.960;6.188;2022-12-11T14:21:18;23.85;;;15.02;;
51614;SDS011;37695;52.960;6.188;2022-12-11T14:23:50;25.42;;;15.32;;
51614;SDS011;37695;52.960;6.188;2022-12-11T14:28:50;22.80;;;14.20;;
51614;SDS011;37695;52.960;6.188;2022-12-11T14:31:25;21.33;;;13.40;;
51614;SDS011;37695;52.960;6.188;2022-12-11T14:34:05;22.08;;;14.23;;
51614;SDS011;37695;52.960;6.188;2022-12-11T14:36:37;23.42;;;14.52;;
51614;SDS011;37695;52.960;6.188;2022-12-11T14:39:06;21.80;;;14.05;;
51614;SDS011;37695;52.960;6.188;2022-12-11T14:44:13;21.13;;;13.80;;
51614;SDS011;37695;52.960;6.188;2022-12-11T14:49:49;21.50;;;13.77;;
51614;SDS011;37695;52.960;6.188;2022-12-11T14:52:24;22.73;;;14.10;;
51614;SDS011;37695;52.960;6.188;2022-12-11T14:55:03;20.90;;;12.85;;
51614;SDS011;37695;52.960;6.188;2022-12-11T14:57:32;22.25;;;14.75;;
51614;SDS011;37695;52.960;6.188;2022-12-11T14:59:59;22.90;;;14.85;;
51614;SDS011;37695;52.960;6.188;2022-12-11T15:02:30;22.60;;;15.48;;
51614;SDS011;37695;52.960;6.188;2022-12-11T15:05:18;25.55;;;14.95;;
51614;SDS011;37695;52.960;6.188;2022-12-11T15:07:54;22.33;;;13.80;;
51614;SDS011;37695;52.960;6.188;2022-12-11T15:10:23;21.65;;;14.65;;
51614;SDS011;37695;52.960;6.188;2022-12-11T15:13:03;21.20;;;13.77;;
51614;SDS011;37695;52.960;6.188;2022-12-11T15:15:30;23.65;;;14.80;;
51614;SDS011;37695;52.960;6.188;2022-12-11T15:18:04;23.00;;;14.05;;
51614;SDS011;37695;52.960;6.188;2022-12-11T15:20:32;20.67;;;13.65;;
51614;SDS011;37695;52.960;6.188;2022-12-11T15:22:58;22.30;;;13.77;;
51614;SDS011;37695;52.960;6.188;2022-12-11T15:25:26;22.60;;;14.60;;
51614;SDS011;37695;52.960;6.188;2022-12-11T15:27:57;23.35;;;14.48;;
51614;SDS011;37695;52.960;6.188;2022-12-11T15:30:28;22.25;;;14.77;;
51614;SDS011;37695;52.960;6.188;2022-12-11T15:33:14;25.48;;;15.27;;
51614;SDS011;37695;52.960;6.188;2022-12-11T15:38:29;21.08;;;13.38;;
51614;SDS011;37695;52.960;6.188;2022-12-11T15:41:05;21.77;;;13.25;;
51614;SDS011;37695;52.960;6.188;2022-12-11T15:43:37;20.27;;;12.23;;
51614;SDS011;37695;52.960;6.188;2022-12-11T15:46:03;19.90;;;12.90;;
51614;SDS011;37695;52.960;6.188;2022-12-11T15:48:29;20.52;;;14.18;;
51614;SDS011;37695;52.960;6.188;2022-12-11T15:50:55;20.77;;;12.48;;
51614;SDS011;37695;52.960;6.188;2022-12-11T15:53:20;19.95;;;13.63;;
51614;SDS011;37695;52.960;6.188;2022-12-11T15:55:46;19.50;;;12.63;;
51614;SDS011;37695;52.960;6.188;2022-12-11T15:58:13;20.98;;;13.07;;
51614;SDS011;37695;52.960;6.188;2022-12-11T16:00:41;18.65;;;12.65;;
51614;SDS011;37695;52.960;6.188;2022-12-11T16:03:09;20.20;;;12.73;;
51614;SDS011;37695;52.960;6.188;2022-12-11T16:05:37;18.08;;;12.43;;
51614;SDS011;37695;52.960;6.188;2022-12-11T16:08:02;21.25;;;13.50;;